createdAt,value
2023-03-13T00:01:01.934Z,4.07
2023-03-13T00:03:28.999Z,4.57
2023-03-13T00:05:57.337Z,4.50
2023-03-13T00:08:25.503Z,9.37
2023-03-13T00:10:52.546Z,5.40
2023-03-13T00:13:19.294Z,4.77
2023-03-13T00:15:46.055Z,5.37
2023-03-13T00:18:13.038Z,6.77
2023-03-13T00:20:40.050Z,8.50
2023-03-13T00:23:06.883Z,6.33
2023-03-13T00:25:33.660Z,6.93
2023-03-13T00:28:00.390Z,5.17
2023-03-13T00:30:27.218Z,7.30
2023-03-13T00:32:54.076Z,7.00
2023-03-13T00:35:20.896Z,6.13
2023-03-13T00:37:47.660Z,7.20
2023-03-13T00:40:14.500Z,6.57
2023-03-13T00:42:41.220Z,7.30
2023-03-13T00:45:08.344Z,6.13
2023-03-13T00:47:35.053Z,3.67
2023-03-13T00:50:01.835Z,7.53
2023-03-13T00:52:28.628Z,7.20
2023-03-13T00:54:55.595Z,8.10
2023-03-13T00:57:22.426Z,3.67
2023-03-13T00:59:49.128Z,6.70
2023-03-13T01:02:15.980Z,4.47
2023-03-13T01:04:42.854Z,6.97
2023-03-13T01:07:09.691Z,7.17
2023-03-13T01:09:36.426Z,5.77
2023-03-13T01:12:03.410Z,7.23
2023-03-13T01:14:30.175Z,6.53
2023-03-13T01:16:56.953Z,9.83
2023-03-13T01:19:23.689Z,6.53
2023-03-13T01:21:50.406Z,9.30
2023-03-13T01:24:17.677Z,8.27
2023-03-13T01:26:44.409Z,9.40
2023-03-13T01:29:11.115Z,6.60
2023-03-13T01:31:37.998Z,8.67
2023-03-13T01:34:06.733Z,13.07
2023-03-13T01:36:35.751Z,9.03
2023-03-13T01:39:02.602Z,9.57
2023-03-13T01:41:30.993Z,11.83
2023-03-13T01:43:58.299Z,14.57
2023-03-13T01:46:29.842Z,12.47
2023-03-13T01:49:14.411Z,15.57
2023-03-13T01:52:08.603Z,14.83
2023-03-13T01:54:42.662Z,10.97
2023-03-13T01:57:26.951Z,12.27
2023-03-13T02:00:02.518Z,12.57
2023-03-13T02:02:31.410Z,11.90
2023-03-13T02:05:03.169Z,9.87
2023-03-13T02:07:36.187Z,9.60
2023-03-13T02:10:03.510Z,12.53
2023-03-13T02:12:34.173Z,12.37
2023-03-13T02:15:07.701Z,9.53
2023-03-13T02:17:36.082Z,9.97
2023-03-13T02:20:03.940Z,10.00
2023-03-13T02:22:51.028Z,8.67
2023-03-13T02:25:24.039Z,6.27
2023-03-13T02:28:03.535Z,9.00
2023-03-13T02:30:30.619Z,6.90
2023-03-13T02:32:57.866Z,5.87
2023-03-13T02:35:24.780Z,5.53
2023-03-13T02:37:56.253Z,3.87
2023-03-13T02:40:26.485Z,3.87
2023-03-13T02:42:56.053Z,3.47
2023-03-13T02:45:23.135Z,4.07
2023-03-13T02:47:50.099Z,2.80
2023-03-13T02:50:17.688Z,3.83
2023-03-13T02:52:51.194Z,3.20
2023-03-13T02:55:32.397Z,3.70
2023-03-13T02:57:59.172Z,5.03
2023-03-13T03:00:27.129Z,1.83
2023-03-13T03:02:55.425Z,4.80
2023-03-13T03:05:22.816Z,2.40
2023-03-13T03:07:50.654Z,2.63
2023-03-13T03:10:18.789Z,3.37
2023-03-13T03:12:45.699Z,4.27
2023-03-13T03:15:12.918Z,1.77
2023-03-13T03:17:39.792Z,2.43
2023-03-13T03:20:12.034Z,4.80
2023-03-13T03:22:40.903Z,1.40
2023-03-13T03:25:09.262Z,2.83
2023-03-13T03:27:36.713Z,4.17
2023-03-13T03:30:05.469Z,2.40
2023-03-13T03:32:32.404Z,3.97
2023-03-13T03:34:59.310Z,4.57
2023-03-13T03:37:26.333Z,2.17
2023-03-13T03:39:53.227Z,2.23
2023-03-13T03:42:19.954Z,1.50
2023-03-13T03:44:46.712Z,3.40
2023-03-13T03:47:13.545Z,2.00
2023-03-13T03:49:40.658Z,2.10
2023-03-13T03:52:07.421Z,1.10
2023-03-13T03:54:35.090Z,1.20
2023-03-13T03:57:01.879Z,1.87
2023-03-13T03:59:28.917Z,1.70
2023-03-13T04:01:55.808Z,0.63
2023-03-13T04:04:22.719Z,2.17
2023-03-13T04:06:49.442Z,3.03
2023-03-13T04:09:16.408Z,1.97
2023-03-13T04:11:43.426Z,1.03
2023-03-13T04:14:10.211Z,1.20
2023-03-13T04:16:37.010Z,1.00
2023-03-13T04:19:03.776Z,0.70
2023-03-13T04:21:30.537Z,2.20
2023-03-13T04:23:57.933Z,3.13
2023-03-13T04:26:24.735Z,1.47
2023-03-13T04:28:51.490Z,0.73
2023-03-13T04:31:18.374Z,2.20
2023-03-13T04:33:45.156Z,2.30
2023-03-13T04:36:11.890Z,0.40
2023-03-13T04:38:39.688Z,1.57
2023-03-13T04:41:06.416Z,2.10
2023-03-13T04:43:33.172Z,2.07
2023-03-13T04:46:00.003Z,3.93
2023-03-13T04:48:26.749Z,4.00
2023-03-13T04:50:53.467Z,4.33
2023-03-13T04:53:20.282Z,8.47
2023-03-13T04:55:48.528Z,8.10
2023-03-13T04:58:15.295Z,5.77
2023-03-13T05:00:42.305Z,3.67
2023-03-13T05:03:09.205Z,7.33
2023-03-13T05:05:36.209Z,7.83
2023-03-13T05:08:03.476Z,3.27
2023-03-13T05:10:30.214Z,6.20
2023-03-13T05:12:56.932Z,7.73
2023-03-13T05:15:23.693Z,8.50
2023-03-13T05:17:50.784Z,8.60
2023-03-13T05:20:18.466Z,6.83
2023-03-13T05:22:45.185Z,10.83
2023-03-13T05:25:11.909Z,4.37
2023-03-13T05:27:38.676Z,10.20
2023-03-13T05:30:05.864Z,10.30
2023-03-13T05:32:32.682Z,6.07
2023-03-13T05:34:59.479Z,5.30
2023-03-13T05:37:26.382Z,7.80
2023-03-13T05:39:53.232Z,7.23
2023-03-13T05:42:19.960Z,6.37
2023-03-13T05:44:46.668Z,6.93
2023-03-13T05:47:13.380Z,5.87
2023-03-13T05:49:40.198Z,6.03
2023-03-13T05:52:07.021Z,5.33
2023-03-13T05:54:33.752Z,5.83
2023-03-13T05:57:00.500Z,9.03
2023-03-13T05:59:27.200Z,7.80
2023-03-13T06:01:54.024Z,6.93
2023-03-13T06:04:21.208Z,7.67
2023-03-13T06:06:48.113Z,7.93
2023-03-13T06:09:14.936Z,9.37
2023-03-13T06:11:41.888Z,10.53
2023-03-13T06:14:08.712Z,10.20
2023-03-13T06:16:35.547Z,8.83
2023-03-13T06:19:02.405Z,14.07
2023-03-13T06:21:29.356Z,11.57
2023-03-13T06:23:56.276Z,15.87
2023-03-13T06:26:24.801Z,14.90
2023-03-13T06:28:52.471Z,15.83
2023-03-13T06:31:19.274Z,16.20
2023-03-13T06:33:46.200Z,16.67
2023-03-13T06:36:13.336Z,17.33
2023-03-13T06:38:40.163Z,22.53
2023-03-13T06:41:07.898Z,20.30
2023-03-13T06:43:35.042Z,15.20
2023-03-13T06:46:05.520Z,19.67
2023-03-13T06:48:32.331Z,19.67
2023-03-13T06:50:59.103Z,18.63
2023-03-13T06:53:26.010Z,20.30
2023-03-13T06:55:52.784Z,18.20
2023-03-13T06:58:31.504Z,19.83
2023-03-13T07:01:05.855Z,14.00
2023-03-13T07:03:32.898Z,21.93
2023-03-13T07:06:00.258Z,20.93
2023-03-13T07:08:27.647Z,17.73
2023-03-13T07:10:58.798Z,18.90
2023-03-13T07:13:25.513Z,19.27
2023-03-13T07:15:52.538Z,24.00
2023-03-13T07:18:19.800Z,17.47
2023-03-13T07:20:54.281Z,20.43
2023-03-13T07:23:21.818Z,25.83
2023-03-13T07:25:56.540Z,26.20
2023-03-13T07:28:24.623Z,23.73
2023-03-13T07:30:51.556Z,23.73
2023-03-13T07:33:18.379Z,18.10
2023-03-13T07:35:52.658Z,23.80
2023-03-13T07:38:20.154Z,18.40
2023-03-13T07:40:55.768Z,17.43
2023-03-13T07:43:23.792Z,21.57
2023-03-13T07:45:56.030Z,22.97
2023-03-13T07:48:24.359Z,21.23
2023-03-13T07:50:51.752Z,22.07
2023-03-13T07:53:22.285Z,19.30
2023-03-13T07:56:03.491Z,20.17
2023-03-13T07:58:33.348Z,20.93
2023-03-13T08:01:00.268Z,21.73
2023-03-13T08:03:27.467Z,23.40
2023-03-13T08:06:00.815Z,22.70
2023-03-13T08:08:28.438Z,23.10
2023-03-13T08:11:03.655Z,16.00
2023-03-13T08:13:32.138Z,23.97
2023-03-13T08:16:23.047Z,21.00
2023-03-13T08:18:52.267Z,22.23
2023-03-13T08:21:21.836Z,21.13
2023-03-13T08:23:48.877Z,25.93
2023-03-13T08:26:18.124Z,19.27
2023-03-13T08:28:47.056Z,20.40
2023-03-13T08:31:23.651Z,26.37
2023-03-13T08:33:51.278Z,22.63
2023-03-13T08:36:21.790Z,19.53
2023-03-13T08:38:48.910Z,29.13
2023-03-13T08:41:19.071Z,22.43
2023-03-13T08:43:46.343Z,25.90
2023-03-13T08:46:14.425Z,16.87
2023-03-13T08:48:41.601Z,19.13
2023-03-13T08:51:14.157Z,24.80
2023-03-13T08:53:42.730Z,22.83
2023-03-13T08:56:11.182Z,24.33
2023-03-13T08:58:38.605Z,24.33
2023-03-13T09:01:08.454Z,19.53
2023-03-13T09:03:46.831Z,17.83
2023-03-13T09:06:14.095Z,24.40
2023-03-13T09:08:41.436Z,26.63
2023-03-13T09:11:14.859Z,18.40
2023-03-13T09:13:44.864Z,26.93
2023-03-13T09:16:14.716Z,20.83
2023-03-13T09:18:46.676Z,23.27
2023-03-13T09:21:33.879Z,18.73
2023-03-13T09:24:01.638Z,23.47
2023-03-13T09:26:28.899Z,21.47
2023-03-13T09:28:56.286Z,26.57
2023-03-13T09:31:33.505Z,22.80
2023-03-13T09:34:01.575Z,20.13
2023-03-13T09:36:29.059Z,23.60
2023-03-13T09:38:58.325Z,24.03
2023-03-13T09:41:25.337Z,24.47
2023-03-13T09:43:55.337Z,20.27
2023-03-13T09:46:25.058Z,23.17
2023-03-13T09:48:58.610Z,21.33
2023-03-13T09:51:30.508Z,23.70
2023-03-13T09:54:21.807Z,23.80
2023-03-13T09:56:55.653Z,22.37
2023-03-13T09:59:29.932Z,20.53
2023-03-13T10:02:00.643Z,30.70
2023-03-13T10:04:44.473Z,23.17
2023-03-13T10:07:11.968Z,22.67
2023-03-13T10:09:40.906Z,23.87
2023-03-13T10:12:16.779Z,31.00
2023-03-13T10:15:06.651Z,19.77
2023-03-13T10:17:37.215Z,21.43
2023-03-13T10:20:32.216Z,23.93
2023-03-13T10:23:15.939Z,19.30
2023-03-13T10:25:42.931Z,19.90
2023-03-13T10:28:15.126Z,29.40
2023-03-13T10:30:48.171Z,20.40
2023-03-13T10:33:26.841Z,25.77
2023-03-13T10:36:09.452Z,22.30
2023-03-13T10:38:48.925Z,30.40
2023-03-13T10:41:35.346Z,20.20
2023-03-13T10:44:15.349Z,22.17
2023-03-13T10:46:44.812Z,22.73
2023-03-13T10:49:31.457Z,23.93
2023-03-13T10:52:04.086Z,26.43
2023-03-13T10:54:37.472Z,27.30
2023-03-13T10:57:19.438Z,25.07
2023-03-13T10:59:49.086Z,27.87
2023-03-13T11:02:35.584Z,24.80
2023-03-13T11:05:38.732Z,27.13
2023-03-13T11:08:29.155Z,27.27
2023-03-13T11:11:01.317Z,20.77
2023-03-13T11:13:39.545Z,23.40
2023-03-13T11:16:24.169Z,28.73
2023-03-13T11:19:03.003Z,22.87
2023-03-13T11:22:03.942Z,25.27
2023-03-13T11:24:49.156Z,23.87
2023-03-13T11:27:31.049Z,25.93
2023-03-13T11:30:25.222Z,25.27
2023-03-13T11:33:06.565Z,21.50
2023-03-13T11:36:00.788Z,18.10
2023-03-13T11:38:42.233Z,27.20
2023-03-13T11:41:12.003Z,24.10
2023-03-13T11:43:47.974Z,17.73
2023-03-13T11:46:26.068Z,24.93
2023-03-13T11:49:20.903Z,25.07
2023-03-13T11:51:59.695Z,21.57
2023-03-13T11:54:52.723Z,23.97
2023-03-13T11:57:45.703Z,22.37
2023-03-13T12:00:36.383Z,19.33
2023-03-13T12:03:20.441Z,21.27
2023-03-13T12:05:54.312Z,21.10
2023-03-13T12:08:24.084Z,25.97
2023-03-13T12:11:17.684Z,24.13
2023-03-13T12:13:52.571Z,25.60
2023-03-13T12:16:25.648Z,22.73
2023-03-13T12:18:53.818Z,22.43
2023-03-13T12:21:30.558Z,18.73
2023-03-13T12:24:12.143Z,19.30
2023-03-13T12:26:46.925Z,20.80
2023-03-13T12:29:30.451Z,21.50
2023-03-13T12:32:07.123Z,17.00
2023-03-13T12:34:54.905Z,30.07
2023-03-13T12:37:26.940Z,23.60
2023-03-13T12:40:08.347Z,18.03
2023-03-13T12:42:41.521Z,19.47
2023-03-13T12:45:12.553Z,26.50
2023-03-13T12:48:01.012Z,18.73
2023-03-13T12:50:39.545Z,19.10
2023-03-13T12:53:18.489Z,21.03
2023-03-13T12:55:58.385Z,21.23
2023-03-13T12:58:53.772Z,21.43
2023-03-13T13:01:34.063Z,24.10
2023-03-13T13:04:15.461Z,26.43
2023-03-13T13:07:18.430Z,24.93
2023-03-13T13:10:10.298Z,19.87
2023-03-13T13:12:38.989Z,25.07
2023-03-13T13:15:17.995Z,20.77
2023-03-13T13:17:56.955Z,30.13
2023-03-13T13:20:30.548Z,22.77
2023-03-13T13:23:16.309Z,21.97
2023-03-13T13:25:43.201Z,18.10
2023-03-13T13:28:21.782Z,23.43
2023-03-13T13:30:50.404Z,21.27
2023-03-13T13:33:29.184Z,25.00
2023-03-13T13:36:27.786Z,22.80
2023-03-13T13:38:55.509Z,22.00
2023-03-13T13:41:33.031Z,19.80
2023-03-13T13:44:21.929Z,21.10
2023-03-13T13:46:49.028Z,21.10
2023-03-13T13:49:35.007Z,21.10
2023-03-13T13:52:02.057Z,21.87
2023-03-13T13:54:56.663Z,20.83
2023-03-13T13:57:30.697Z,18.23
2023-03-13T14:00:16.347Z,20.73
2023-03-13T14:02:57.155Z,24.40
2023-03-13T14:05:27.107Z,22.80
2023-03-13T14:08:25.830Z,24.87
2023-03-13T14:11:24.677Z,29.13
2023-03-13T14:14:16.137Z,24.77
2023-03-13T14:16:48.365Z,31.07
2023-03-13T14:19:30.550Z,24.63
2023-03-13T14:22:03.196Z,19.27
2023-03-13T14:24:29.976Z,20.33
2023-03-13T14:26:57.006Z,29.07
2023-03-13T14:29:26.969Z,22.67
2023-03-13T14:31:58.524Z,23.40
2023-03-13T14:34:27.558Z,26.60
2023-03-13T14:37:07.412Z,27.07
2023-03-13T14:39:45.920Z,27.50
2023-03-13T14:42:14.721Z,23.33
2023-03-13T14:44:44.083Z,25.80
2023-03-13T14:47:30.504Z,28.57
2023-03-13T14:50:04.261Z,24.10
2023-03-13T14:52:34.134Z,25.33
2023-03-13T14:55:04.537Z,23.00
2023-03-13T14:57:32.566Z,24.90
2023-03-13T15:00:32.795Z,18.30
2023-03-13T15:03:16.743Z,19.80
2023-03-13T15:05:45.763Z,16.97
2023-03-13T15:08:21.284Z,20.30
2023-03-13T15:10:49.442Z,18.33
2023-03-13T15:13:37.193Z,20.53
2023-03-13T15:16:20.149Z,16.70
2023-03-13T15:18:48.195Z,20.27
2023-03-13T15:21:15.395Z,18.07
2023-03-13T15:23:50.069Z,23.50
2023-03-13T15:26:17.283Z,24.77
2023-03-13T15:28:44.265Z,22.33
2023-03-13T15:31:13.689Z,19.77
2023-03-13T15:33:41.870Z,17.70
2023-03-13T15:36:09.603Z,22.30
2023-03-13T15:38:36.729Z,25.60
2023-03-13T15:41:04.558Z,24.20
2023-03-13T15:43:36.668Z,20.77
2023-03-13T15:46:05.645Z,20.97
2023-03-13T15:48:32.693Z,22.53
2023-03-13T15:51:03.969Z,20.77
2023-03-13T15:53:33.300Z,17.50
2023-03-13T15:56:01.767Z,31.73
2023-03-13T15:58:29.563Z,28.37
2023-03-13T16:00:57.386Z,27.57
2023-03-13T16:03:26.742Z,23.37
2023-03-13T16:05:54.781Z,24.97
2023-03-13T16:08:34.813Z,21.83
2023-03-13T16:11:06.864Z,26.67
2023-03-13T16:13:33.664Z,30.30
2023-03-13T16:16:00.422Z,26.07
2023-03-13T16:18:27.302Z,20.43
2023-03-13T16:20:54.488Z,23.33
2023-03-13T16:23:21.422Z,22.40
2023-03-13T16:25:49.322Z,22.03
2023-03-13T16:28:16.568Z,20.20
2023-03-13T16:30:44.025Z,21.20
2023-03-13T16:33:12.773Z,24.10
2023-03-13T16:35:39.677Z,20.17
2023-03-13T16:38:08.723Z,19.23
2023-03-13T16:40:35.899Z,21.27
2023-03-13T16:43:02.680Z,15.07
2023-03-13T16:45:29.449Z,17.37
2023-03-13T16:47:56.494Z,29.07
2023-03-13T16:50:25.220Z,12.93
2023-03-13T16:52:52.820Z,24.53
2023-03-13T16:55:20.716Z,17.27
2023-03-13T16:57:47.598Z,17.43
2023-03-13T17:00:20.412Z,20.10
2023-03-13T17:02:47.528Z,23.53
2023-03-13T17:05:16.046Z,19.73
2023-03-13T17:07:47.944Z,17.67
2023-03-13T17:10:29.754Z,18.70
2023-03-13T17:12:57.047Z,18.90
2023-03-13T17:15:25.938Z,17.40
2023-03-13T17:17:54.165Z,23.30
2023-03-13T17:20:24.349Z,23.53
2023-03-13T17:22:51.290Z,17.70
2023-03-13T17:25:18.521Z,22.03
2023-03-13T17:27:47.490Z,19.07
2023-03-13T17:30:21.242Z,21.40
2023-03-13T17:32:49.984Z,25.00
2023-03-13T17:35:17.617Z,20.17
2023-03-13T17:37:44.628Z,15.93
2023-03-13T17:40:26.714Z,28.20
2023-03-13T17:42:53.776Z,19.20
2023-03-13T17:45:20.697Z,24.07
2023-03-13T17:47:49.227Z,24.07
2023-03-13T17:50:26.855Z,24.07
2023-03-13T17:52:54.036Z,21.23
2023-03-13T17:55:20.953Z,25.90
2023-03-13T17:57:52.174Z,20.37
2023-03-13T18:00:25.207Z,23.47
2023-03-13T18:02:52.165Z,30.43
2023-03-13T18:05:19.007Z,23.20
2023-03-13T18:07:46.687Z,17.57
2023-03-13T18:10:17.523Z,21.93
2023-03-13T18:12:44.583Z,20.27
2023-03-13T18:15:11.845Z,15.77
2023-03-13T18:17:38.791Z,20.43
2023-03-13T18:20:10.755Z,16.43
2023-03-13T18:22:37.560Z,18.90
2023-03-13T18:25:04.616Z,20.63
2023-03-13T18:27:31.422Z,14.23
2023-03-13T18:29:58.257Z,20.37
2023-03-13T18:32:25.124Z,21.63
2023-03-13T18:34:51.904Z,19.43
2023-03-13T18:37:30.488Z,18.13
2023-03-13T18:39:58.110Z,20.27
2023-03-13T18:42:25.687Z,19.70
2023-03-13T18:44:52.978Z,20.37
2023-03-13T18:47:27.350Z,18.50
2023-03-13T18:49:54.132Z,24.40
2023-03-13T18:52:20.935Z,15.97
2023-03-13T18:54:47.698Z,20.40
2023-03-13T18:57:16.961Z,13.07
2023-03-13T18:59:44.614Z,15.50
2023-03-13T19:02:16.161Z,17.50
2023-03-13T19:04:44.162Z,15.77
2023-03-13T19:07:14.815Z,22.70
2023-03-13T19:09:43.849Z,16.97
2023-03-13T19:12:12.561Z,16.47
2023-03-13T19:14:39.492Z,17.23
2023-03-13T19:17:23.291Z,18.57
2023-03-13T19:19:50.294Z,16.37
2023-03-13T19:22:17.050Z,13.83
2023-03-13T19:24:43.841Z,18.57
2023-03-13T19:27:14.304Z,17.70
2023-03-13T19:29:41.007Z,20.33
2023-03-13T19:32:18.422Z,19.57
2023-03-13T19:34:45.616Z,14.90
2023-03-13T19:37:14.187Z,14.97
2023-03-13T19:39:41.785Z,15.07
2023-03-13T19:42:08.863Z,18.80
2023-03-13T19:44:36.192Z,13.23
2023-03-13T19:47:04.475Z,17.23
2023-03-13T19:49:31.379Z,17.47
2023-03-13T19:51:58.570Z,21.23
2023-03-13T19:54:25.303Z,13.30
2023-03-13T19:56:53.486Z,10.47
2023-03-13T19:59:28.531Z,14.07
2023-03-13T20:01:59.603Z,15.17
2023-03-13T20:04:27.427Z,13.90
2023-03-13T20:06:54.296Z,20.87
2023-03-13T20:09:21.433Z,11.47
2023-03-13T20:11:48.253Z,11.47
2023-03-13T20:14:15.698Z,11.67
2023-03-13T20:16:43.667Z,13.57
2023-03-13T20:19:10.645Z,11.00
2023-03-13T20:21:41.125Z,11.00
2023-03-13T20:24:08.398Z,9.30
2023-03-13T20:26:36.004Z,14.93
2023-03-13T20:29:02.775Z,14.80
2023-03-13T20:31:31.939Z,12.40
2023-03-13T20:34:00.111Z,14.77
2023-03-13T20:36:27.695Z,14.20
2023-03-13T20:38:54.501Z,16.90
2023-03-13T20:41:25.130Z,18.83
2023-03-13T20:43:52.803Z,15.70
2023-03-13T20:46:20.371Z,14.00
2023-03-13T20:48:47.308Z,20.27
2023-03-13T20:51:14.274Z,17.07
2023-03-13T20:53:42.287Z,13.13
2023-03-13T20:56:11.495Z,14.03
2023-03-13T20:58:38.771Z,13.43
2023-03-13T21:01:06.800Z,15.80
2023-03-13T21:03:35.749Z,22.20
2023-03-13T21:06:09.888Z,16.63
2023-03-13T21:08:38.323Z,10.70
2023-03-13T21:11:16.211Z,14.80
2023-03-13T21:13:43.242Z,14.83
2023-03-13T21:16:10.376Z,11.53
2023-03-13T21:18:37.641Z,14.93
2023-03-13T21:21:10.461Z,11.77
2023-03-13T21:23:38.100Z,18.87
2023-03-13T21:26:05.275Z,12.57
2023-03-13T21:28:33.204Z,11.83
2023-03-13T21:31:10.744Z,12.73
2023-03-13T21:33:38.310Z,14.07
2023-03-13T21:36:05.711Z,14.87
2023-03-13T21:38:32.578Z,17.33
2023-03-13T21:40:59.530Z,14.80
2023-03-13T21:43:28.181Z,18.37
2023-03-13T21:45:56.783Z,14.20
2023-03-13T21:48:23.622Z,17.20
2023-03-13T21:50:53.810Z,17.80
2023-03-13T21:53:20.665Z,14.70
2023-03-13T21:55:51.535Z,20.73
2023-03-13T21:58:18.538Z,22.33
2023-03-13T22:01:03.184Z,22.57
2023-03-13T22:03:31.742Z,25.97
2023-03-13T22:05:58.698Z,19.97
2023-03-13T22:08:25.476Z,19.40
2023-03-13T22:10:54.861Z,16.23
2023-03-13T22:13:22.130Z,18.67
2023-03-13T22:15:50.454Z,15.77
2023-03-13T22:18:17.443Z,19.40
2023-03-13T22:20:44.493Z,15.97
2023-03-13T22:23:12.283Z,24.33
2023-03-13T22:25:40.847Z,17.83
2023-03-13T22:28:08.128Z,16.10
2023-03-13T22:30:35.558Z,19.57
2023-03-13T22:33:03.915Z,15.53
2023-03-13T22:35:30.721Z,21.80
2023-03-13T22:37:57.768Z,21.47
2023-03-13T22:40:24.662Z,20.77
2023-03-13T22:42:51.760Z,16.50
2023-03-13T22:45:19.221Z,18.03
2023-03-13T22:47:46.045Z,22.70
2023-03-13T22:50:13.387Z,19.83
2023-03-13T22:52:40.574Z,11.50
2023-03-13T22:55:07.694Z,21.03
2023-03-13T22:57:34.509Z,15.70
2023-03-13T23:00:01.315Z,20.23
2023-03-13T23:02:28.957Z,15.43
2023-03-13T23:04:57.814Z,16.90
2023-03-13T23:07:28.506Z,15.50
2023-03-13T23:09:57.649Z,20.70
2023-03-13T23:12:25.970Z,18.83
2023-03-13T23:14:54.512Z,22.50
2023-03-13T23:17:21.335Z,18.33
2023-03-13T23:19:48.155Z,15.80
2023-03-13T23:22:18.095Z,12.60
2023-03-13T23:24:45.094Z,14.53
2023-03-13T23:27:12.035Z,17.33
2023-03-13T23:29:38.910Z,22.97
2023-03-13T23:32:05.853Z,19.27
2023-03-13T23:34:34.561Z,15.83
2023-03-13T23:37:01.520Z,21.93
2023-03-13T23:39:28.276Z,9.83
2023-03-13T23:41:55.023Z,4.73
2023-03-13T23:44:21.745Z,5.53
2023-03-13T23:46:48.533Z,4.37
2023-03-13T23:49:15.666Z,5.30
2023-03-13T23:51:42.411Z,3.03
2023-03-13T23:54:09.120Z,6.60
2023-03-13T23:56:35.906Z,3.00
2023-03-13T23:59:02.777Z,6.10
